Aspen Park, Colorado
Current Conditions -  °F | °C
As of 8:53 AM on Wednesday 26 Nov 2014 (Local Time) from KAPA Reporting Station
Few Clouds Few Clouds  
Wind Chill: 18°   Ceiling: Unl
Heat Index: 29°   Visibility: 10mi
Dew Point: 20°   Wind: 14mph
Humidity: 69%   Direction: 170°S
Pressure: 30.16"   Gusts: NA
Location:  39.4975°N, 105.289°W
Report Text: KAPA 261553Z 17012KT 10SM FEW030 FEW100 FEW150 M02/M07 A3016 RMK AO2 SLP226 T10171067
Loading
Personal Weather Stations






























Interactive Weather Map New forecast layout! Learn more

10-Day Weather Forecast

Advertisements
Track Severe Weather on mobile